Clean Ocean — V7CY7 — position and weather

sailwx.info

Track history (hours):
 
Tides and Currents Weather Stations Pressure Air Temp Water Temp Dewpoint Dewpoint Depression Visibility Wind Speed Wind Dir Waves Ship Positions

Clean Ocean

Last reported at 2017-Oct-20 02:30 UTC. Time now 2017-Oct-22 17:51 UTC.
Position N 34°07' W 025°01'.

Length 289 m; draft 9.4 m.

Type: Tanker. MMSI: 538005350.

Date/timePositionNaut miles runAvg speedWind from/ knotsBaromVisibWave heightAir tempDewpointWater temp
2017-Oct-20 02:30N 34°07' W 025°01'1516.7
2017-Oct-20 01:36N 34°10' W 024°43'816.7
2017-Oct-20 01:08N 34°12' W 024°34'316.7
2017-Oct-20 00:55N 34°12' W 024°30'1716.8
2017-Oct-19 23:55N 34°16' W 024°10'716.9
2017-Oct-19 23:30N 34°17' W 024°01'1617.5
2017-Oct-19 22:36N 34°20' W 023°42'1017.9
2017-Oct-19 22:02N 34°22' W 023°31'118.5
2017-Oct-19 22:00N 34°22' W 023°30'1218.5
2017-Oct-19 21:22N 34°24' W 023°16'2918.6
2017-Oct-19 19:51N 34°29' W 022°42'  
2017-Oct-17 15:40N 35°58' W 005°33'210.5
2017-Oct-17 15:27N 35°58' W 005°30'511.6
2017-Oct-17 15:00N 36°00' W 005°24'611.3
2017-Oct-17 14:30N 36°04' W 005°19'1 1.6
2017-Oct-17 14:00N 36°04' W 005°19'1 2.8
2017-Oct-17 13:30N 36°04' W 005°21'3 4.7
2017-Oct-17 12:50N 36°05' W 005°24'0 0.3
2017-Oct-17 12:29N 36°05' W 005°24'0 0.0
2017-Oct-17 11:59N 36°05' W 005°24'0 0.0
2017-Oct-17 11:26N 36°05' W 005°24'0 0.0
2017-Oct-17 10:59N 36°05' W 005°24'0 0.1
2017-Oct-17 10:26N 36°05' W 005°24'0 0.0
2017-Oct-17 09:59N 36°05' W 005°24'0 0.0
2017-Oct-17 09:29N 36°05' W 005°24'0 0.0
2017-Oct-17 08:59N 36°05' W 005°24'0 0.0
2017-Oct-17 08:29N 36°05' W 005°24'0 0.0
2017-Oct-17 07:59N 36°05' W 005°24'0 0.0
2017-Oct-17 07:29N 36°05' W 005°24'0 0.0
2017-Oct-17 06:59N 36°05' W 005°24'0 0.0
2017-Oct-17 06:30N 36°05' W 005°24'0 0.4
2017-Oct-17 06:00N 36°05' W 005°25'0 0.3
2017-Oct-17 05:28N 36°05' W 005°24'2 4.0
2017-Oct-17 05:00N 36°04' W 005°23'3 6.3
2017-Oct-17 04:30N 36°01' W 005°21'3 6.0
2017-Oct-17 04:00N 35°59' W 005°23'4 8.9
2017-Oct-17 03:30N 35°57' W 005°28'5 9.2
2017-Oct-17 02:59N 35°56' W 005°34'11 9.5
2017-Oct-17 01:51N 35°54' W 005°47'3 9.1
2017-Oct-17 01:29N 35°54' W 005°51'50 9.4
2017-Oct-16 20:11N 35°51' W 006°53'3 9.6
2017-Oct-16 19:55N 35°50' W 006°56'4 9.8
2017-Oct-16 19:30N 35°49' W 007°01'6 9.6
2017-Oct-16 18:52N 35°48' W 007°08'25 9.2
2017-Oct-16 16:13N 35°39' W 007°37'3 9.5
2017-Oct-16 15:55N 35°38' W 007°40'4 9.6
2017-Oct-16 15:30N 35°36' W 007°44'35 6.3
2017-Oct-16 10:00N 35°40' W 008°27'11 6.1
2017-Oct-16 08:12N 35°48' W 008°36'1 4.8
2017-Oct-16 08:00N 35°48' W 008°34'3 5.6
2017-Oct-16 07:30N 35°48' W 008°31'3 5.2
2017-Oct-16 07:00N 35°48' W 008°28'1 1.3
2017-Oct-16 06:18N 35°47' W 008°27'0 0.8
2017-Oct-16 06:00N 35°47' W 008°26'0 0.9
2017-Oct-16 05:30N 35°47' W 008°26'1 1.0
2017-Oct-16 04:57N 35°47' W 008°25'1 1.3
2017-Oct-16 04:30N 35°47' W 008°25'1 1.4
2017-Oct-16 04:00N 35°48' W 008°24'1 1.4
2017-Oct-16 03:29N 35°48' W 008°23'1 1.3
2017-Oct-16 03:00N 35°48' W 008°22'1 1.2
2017-Oct-16 02:30N 35°49' W 008°22'1 1.0
2017-Oct-16 02:00N 35°49' W 008°21'1 1.0
2017-Oct-16 01:30N 35°49' W 008°20'0 0.6
2017-Oct-16 01:00N 35°49' W 008°20'0 0.8
2017-Oct-16 00:28N 35°48' W 008°19'1 1.3
2017-Oct-15 23:58N 35°48' W 008°19'1 1.3
2017-Oct-15 23:30N 35°48' W 008°18'1 1.3
2017-Oct-15 22:52N 35°48' W 008°17'0 1.2
2017-Oct-15 22:28N 35°48' W 008°17'0 1.0
2017-Oct-15 22:00N 35°47' W 008°16'1 1.2
2017-Oct-15 21:30N 35°47' W 008°15'1 1.3
2017-Oct-15 21:00N 35°47' W 008°15'1 1.4
2017-Oct-15 20:30N 35°47' W 008°14'1 1.4
2017-Oct-15 20:00N 35°46' W 008°13'1 1.1
2017-Oct-15 19:30N 35°46' W 008°13'3 6.5
2017-Oct-15 19:00N 35°46' W 008°17'4 7.8
2017-Oct-15 18:30N 35°45' W 008°22'4 7.9
2017-Oct-15 18:00N 35°45' W 008°27'4 8.0
2017-Oct-15 17:30N 35°45' W 008°31'4 8.0
2017-Oct-15 17:00N 35°44' W 008°36'4 8.1
2017-Oct-15 16:30N 35°44' W 008°41'4 7.9
2017-Oct-15 16:00N 35°44' W 008°46'4 7.4
2017-Oct-15 15:30N 35°43' W 008°51'1 2.0
2017-Oct-15 15:00N 35°42' W 008°51'1 1.2
2017-Oct-15 14:00N 35°42' W 008°50'1 1.4
2017-Oct-15 13:30N 35°42' W 008°49'1 1.5
2017-Oct-15 13:00N 35°42' W 008°48'1 1.5
2017-Oct-15 12:30N 35°41' W 008°47'1 1.6
2017-Oct-15 12:00N 35°41' W 008°46'1 1.5
2017-Oct-15 11:30N 35°41' W 008°45'1 1.6
2017-Oct-15 11:00N 35°41' W 008°44'1 1.5
2017-Oct-15 10:30N 35°41' W 008°43'1 1.4
2017-Oct-15 10:00N 35°41' W 008°43'1 1.3
2017-Oct-15 09:30N 35°41' W 008°42'1 1.5
2017-Oct-15 09:00N 35°41' W 008°41'1 1.4
2017-Oct-15 08:30N 35°41' W 008°40'1 1.5
2017-Oct-15 08:00N 35°41' W 008°39'1 1.3
2017-Oct-15 07:30N 35°41' W 008°38'1 1.3
2017-Oct-15 07:00N 35°41' W 008°37'1 1.4
2017-Oct-15 06:30N 35°41' W 008°37'1 1.4
2017-Oct-15 06:00N 35°41' W 008°36'1 1.5
2017-Oct-15 05:30N 35°41' W 008°35'1 1.4
2017-Oct-15 05:00N 35°42' W 008°34'1 1.3
2017-Oct-15 04:30N 35°42' W 008°34'1 1.0
2017-Oct-15 04:00N 35°42' W 008°33'1 1.0
2017-Oct-15 03:30N 35°43' W 008°33'0 0.8
2017-Oct-15 03:00N 35°43' W 008°32'0 0.9
2017-Oct-15 02:30N 35°43' W 008°32'0 1.0
2017-Oct-15 02:00N 35°43' W 008°31'0 0.9
2017-Oct-15 01:30N 35°44' W 008°31'0 0.8
2017-Oct-15 01:00N 35°44' W 008°30'0 0.9
2017-Oct-15 00:30N 35°44' W 008°30'0 0.8
2017-Oct-15 00:00N 35°45' W 008°30'0 0.5
2017-Oct-14 23:29N 35°45' W 008°30'0 0.5
2017-Oct-14 23:00N 35°45' W 008°29'0 0.4
2017-Oct-14 22:24N 35°45' W 008°29'0 0.5
2017-Oct-14 21:57N 35°45' W 008°29'0 0.4
2017-Oct-14 21:27N 35°46' W 008°29'0 0.3
2017-Oct-14 20:54N 35°46' W 008°29'0 0.1
2017-Oct-14 20:30N 35°46' W 008°29'0 0.2
2017-Oct-14 19:58N 35°46' W 008°29'0 0.3
2017-Oct-14 19:28N 35°46' W 008°29'0 0.3
2017-Oct-14 18:59N 35°46' W 008°29'0 0.2
2017-Oct-14 18:28N 35°46' W 008°29'0 0.3
2017-Oct-14 17:59N 35°46' W 008°29'0 0.2
2017-Oct-14 17:30N 35°46' W 008°29'0 0.6
2017-Oct-14 17:00N 35°46' W 008°28'0 0.6
2017-Oct-14 16:30N 35°46' W 008°28'0 0.7
2017-Oct-14 15:58N 35°47' W 008°27'0 0.4
2017-Oct-14 15:30N 35°46' W 008°27'1 1.4
2017-Oct-14 14:59N 35°46' W 008°27'3 4.9
2017-Oct-14 14:28N 35°44' W 008°25'4 7.2
2017-Oct-14 13:54N 35°41' W 008°22'4 7.3
2017-Oct-14 13:22N 35°38' W 008°19'4 7.7
2017-Oct-14 12:51N 35°34' W 008°16'3 7.7
2017-Oct-14 12:27N 35°32' W 008°13'4 7.2
2017-Oct-14 11:51N 35°28' W 008°11'7 7.0
2017-Oct-14 10:54N 35°22' W 008°09'4 6.7
2017-Oct-14 10:15N 35°17' W 008°08'1 3.6
2017-Oct-14 09:54N 35°16' W 008°08'0 0.4
2017-Oct-14 09:30N 35°16' W 008°08'0 0.3
2017-Oct-14 08:41N 35°16' W 008°08'0 0.2
2017-Oct-14 08:27N 35°16' W 008°08'0 0.2
2017-Oct-14 07:51N 35°16' W 008°08'0 0.4
2017-Oct-14 07:27N 35°16' W 008°08'0 0.4
2017-Oct-14 06:50N 35°16' W 008°07'0 0.5
2017-Oct-14 06:30N 35°16' W 008°07'0 0.4
2017-Oct-14 05:58N 35°17' W 008°08'0 0.5
2017-Oct-14 05:30N 35°17' W 008°08'0 0.5
2017-Oct-14 04:56N 35°17' W 008°08'0 0.7
2017-Oct-14 04:29N 35°17' W 008°08'0 0.8
2017-Oct-14 03:58N 35°18' W 008°09'0 0.7
2017-Oct-14 03:29N 35°18' W 008°09'0 0.6
2017-Oct-14 03:00N 35°18' W 008°09'0 0.6
2017-Oct-14 02:29N 35°18' W 008°09'0 0.6
2017-Oct-14 01:58N 35°18' W 008°10'1 0.7
2017-Oct-14 01:03N 35°18' W 008°10'0 0.6
2017-Oct-14 00:58N 35°18' W 008°11'0 0.5
2017-Oct-14 00:22N 35°19' W 008°11'0 0.5
2017-Oct-14 00:00N 35°19' W 008°11'0 0.6
2017-Oct-13 23:30N 35°19' W 008°11'0 0.7
2017-Oct-13 23:00N 35°19' W 008°12'0 0.7
2017-Oct-13 22:30N 35°19' W 008°12'0 0.6
2017-Oct-13 21:56N 35°19' W 008°13'0 0.6
2017-Oct-13 21:30N 35°19' W 008°13'0 0.5
2017-Oct-13 21:00N 35°19' W 008°13'0 0.4
2017-Oct-13 20:30N 35°19' W 008°14'0 0.4
2017-Oct-13 19:59N 35°19' W 008°14'0 0.5
2017-Oct-13 19:30N 35°19' W 008°14'0 0.3
2017-Oct-13 19:00N 35°19' W 008°14'0 0.4
2017-Oct-13 18:29N 35°19' W 008°15'0 0.5
2017-Oct-13 18:00N 35°19' W 008°15'0 0.3
2017-Oct-13 17:30N 35°19' W 008°15'0 0.5
2017-Oct-13 17:00N 35°19' W 008°15'0 0.7
2017-Oct-13 16:30N 35°19' W 008°16'1 0.8
2017-Oct-13 15:39N 35°19' W 008°16'0 1.0
2017-Oct-13 15:29N 35°19' W 008°17'1 1.0
2017-Oct-13 14:49N 35°20' W 008°17'0 1.0
2017-Oct-13 14:30N 35°20' W 008°18'1 1.1
2017-Oct-13 14:00N 35°20' W 008°18'1 1.2
2017-Oct-13 13:30N 35°20' W 008°19'1 1.1
2017-Oct-13 13:00N 35°20' W 008°20'1 0.9
2017-Oct-13 12:11N 35°20' W 008°20'0 0.8
2017-Oct-13 11:58N 35°20' W 008°21'0 0.6
2017-Oct-13 11:30N 35°21' W 008°21'0 0.7
2017-Oct-13 11:00N 35°21' W 008°21'0 0.6
2017-Oct-13 10:30N 35°21' W 008°22'0 0.7
2017-Oct-13 10:00N 35°21' W 008°22'0 0.5
2017-Oct-13 09:30N 35°21' W 008°22'0 0.3
2017-Oct-13 09:00N 35°21' W 008°22'0 0.3
2017-Oct-13 08:30N 35°21' W 008°22'0 0.3
2017-Oct-13 08:00N 35°22' W 008°23'0 0.3
2017-Oct-13 07:30N 35°22' W 008°22'0 0.3
2017-Oct-13 07:00N 35°22' W 008°22'0 0.4
2017-Oct-13 06:30N 35°22' W 008°22'0 0.6
2017-Oct-13 06:00N 35°22' W 008°23'0 0.6
2017-Oct-13 05:30N 35°23' W 008°23'0 0.7
2017-Oct-13 04:55N 35°23' W 008°23'0 0.8
2017-Oct-13 04:29N 35°23' W 008°23'0 0.8
2017-Oct-13 03:54N 35°24' W 008°23'1 0.9
2017-Oct-13 03:14N 35°24' W 008°24'0 0.8
2017-Oct-13 02:50N 35°25' W 008°24'0 0.8
2017-Oct-13 02:28N 35°25' W 008°24'0 0.7
2017-Oct-13 01:54N 35°25' W 008°24'0 0.7
2017-Oct-13 01:16N 35°26' W 008°24'0 0.6
2017-Oct-13 00:39N 35°26' W 008°24'0 0.8
2017-Oct-13 00:30N 35°26' W 008°24'0 0.8
2017-Oct-12 23:54N 35°27' W 008°24'0 0.9
2017-Oct-12 23:27N 35°27' W 008°25'0 0.9
2017-Oct-12 22:53N 35°28' W 008°25'0 1.0
2017-Oct-12 22:29N 35°28' W 008°25'0 1.0
2017-Oct-12 22:00N 35°28' W 008°25'1 1.1
2017-Oct-12 21:30N 35°29' W 008°25'0 0.9
2017-Oct-12 21:00N 35°29' W 008°26'0 0.8
2017-Oct-12 20:26N 35°30' W 008°26'0 1.0
2017-Oct-12 20:00N 35°30' W 008°26'0 0.8
2017-Oct-12 19:28N 35°30' W 008°26'0 0.8
2017-Oct-12 18:53N 35°31' W 008°26'0 0.8
2017-Oct-12 18:21N 35°31' W 008°27'0 1.0
2017-Oct-12 18:00N 35°32' W 008°27'0 0.8
2017-Oct-12 17:30N 35°32' W 008°27'0 0.8
2017-Oct-12 16:58N 35°32' W 008°27'0 0.7
2017-Oct-12 16:30N 35°33' W 008°27'0 0.8
2017-Oct-12 16:00N 35°33' W 008°28'0 0.5
2017-Oct-12 15:30N 35°33' W 008°28'0 0.4
2017-Oct-12 15:00N 35°33' W 008°28'0 0.5
2017-Oct-12 14:30N 35°34' W 008°28'0 0.4
2017-Oct-12 14:00N 35°34' W 008°28'0 0.4
2017-Oct-12 13:30N 35°34' W 008°28'0 0.4
2017-Oct-12 13:00N 35°34' W 008°28'0 0.3
2017-Oct-12 12:30N 35°34' W 008°27'0 0.6
2017-Oct-12 12:00N 35°35' W 008°27'0 0.7
2017-Oct-12 11:30N 35°35' W 008°27'0 0.7
2017-Oct-12 11:00N 35°35' W 008°27'0 0.8
2017-Oct-12 10:27N 35°36' W 008°27'0 0.7
2017-Oct-12 09:59N 35°36' W 008°27'0 0.6
2017-Oct-12 09:29N 35°36' W 008°27'0 0.6
2017-Oct-12 09:00N 35°37' W 008°26'0 0.6
2017-Oct-12 08:30N 35°37' W 008°26'0 0.5
2017-Oct-12 08:00N 35°37' W 008°26'0 0.5
2017-Oct-12 07:30N 35°37' W 008°26'0 0.5
2017-Oct-12 07:00N 35°37' W 008°26'0 0.6
2017-Oct-12 06:30N 35°38' W 008°25'0 0.6
2017-Oct-12 06:00N 35°38' W 008°25'0 0.7
2017-Oct-12 05:29N 35°38' W 008°25'0 0.8
2017-Oct-12 05:00N 35°38' W 008°25'0 0.9
2017-Oct-12 04:30N 35°39' W 008°24'0 0.8
2017-Oct-12 03:59N 35°39' W 008°24'0 1.0
2017-Oct-12 03:30N 35°40' W 008°24'1 1.2
2017-Oct-12 03:00N 35°40' W 008°24'1 1.0
2017-Oct-12 02:23N 35°41' W 008°24'0 1.0
2017-Oct-12 01:59N 35°41' W 008°24'0 1.0
2017-Oct-12 01:29N 35°42' W 008°24'0 0.9
2017-Oct-12 01:00N 35°42' W 008°24'0 0.9
2017-Oct-12 00:30N 35°43' W 008°24'0 0.8
2017-Oct-12 00:00N 35°43' W 008°24'0 0.6
2017-Oct-11 23:26N 35°44' W 008°24'0 0.5
2017-Oct-11 22:51N 35°44' W 008°24'0 0.3
2017-Oct-11 22:30N 35°44' W 008°24'0 0.1
2017-Oct-11 21:52N 35°44' W 008°24'0 0.4
2017-Oct-11 21:28N 35°44' W 008°24'0 0.5
2017-Oct-11 21:00N 35°44' W 008°23'0 0.5
2017-Oct-11 20:30N 35°44' W 008°23'0 0.6
2017-Oct-11 19:57N 35°44' W 008°23'0 0.4
2017-Oct-11 19:26N 35°44' W 008°22'0 0.2
2017-Oct-11 18:57N 35°44' W 008°22'0 0.3
2017-Oct-11 18:30N 35°44' W 008°22'1 2.3
2017-Oct-11 17:59N 35°44' W 008°24'3 6.8
2017-Oct-11 17:30N 35°43' W 008°28'4 7.8
2017-Oct-11 16:56N 35°41' W 008°33'19 1.1
2017-Oct-11 00:00N 35°40' W 008°57'1 1.7
2017-Oct-10 23:30N 35°40' W 008°56'1 1.9
2017-Oct-10 23:00N 35°41' W 008°55'1 1.8
2017-Oct-10 22:30N 35°41' W 008°54'1 1.7
2017-Oct-10 22:00N 35°42' W 008°53'1 1.3
2017-Oct-10 21:30N 35°43' W 008°53'2 3.1
2017-Oct-10 21:00N 35°44' W 008°54'3 5.2
2017-Oct-10 20:30N 35°43' W 008°57'3 7.0
2017-Oct-10 20:00N 35°40' W 008°60'4 7.1
2017-Oct-10 19:30N 35°37' W 009°03'4 7.2
2017-Oct-10 19:00N 35°34' W 009°05'4 7.6
2017-Oct-10 18:30N 35°31' W 009°08'4 7.6
2017-Oct-10 18:00N 35°28' W 009°10'4 7.6
2017-Oct-10 17:30N 35°25' W 009°13'4 7.8
2017-Oct-10 17:00N 35°22' W 009°16'4 7.6
2017-Oct-10 16:30N 35°18' W 009°18'1 2.7
2017-Oct-10 16:00N 35°17' W 009°17'0 0.3
2017-Oct-10 15:30N 35°17' W 009°17'0 0.3
2017-Oct-10 15:00N 35°17' W 009°17'1 0.5
2017-Oct-10 14:00N 35°17' W 009°16'0 0.7
2017-Oct-10 13:30N 35°17' W 009°16'0 0.7
2017-Oct-10 13:00N 35°17' W 009°15'0 0.8
2017-Oct-10 12:30N 35°17' W 009°15'0 0.9
2017-Oct-10 12:00N 35°17' W 009°14'0 0.9
2017-Oct-10 11:30N 35°18' W 009°14'1 1.0
2017-Oct-10 11:00N 35°18' W 009°13'1 1.0
2017-Oct-10 10:30N 35°18' W 009°13'1 1.0
2017-Oct-10 10:00N 35°18' W 009°12'0 1.0
2017-Oct-10 09:30N 35°18' W 009°12'0 1.0
2017-Oct-10 09:00N 35°18' W 009°11'0 0.9
2017-Oct-10 08:30N 35°19' W 009°11'0 0.9
2017-Oct-10 08:00N 35°19' W 009°10'0 0.8
2017-Oct-10 07:30N 35°19' W 009°10'0 0.7
2017-Oct-10 07:00N 35°20' W 009°09'0 0.8
2017-Oct-10 06:30N 35°20' W 009°09'0 0.6
2017-Oct-10 06:00N 35°20' W 009°09'0 0.8
2017-Oct-10 05:30N 35°21' W 009°09'0 0.7
2017-Oct-10 05:00N 35°21' W 009°08'0 0.7
2017-Oct-10 04:30N 35°21' W 009°08'0 0.7
2017-Oct-10 04:00N 35°21' W 009°08'0 0.7
2017-Oct-10 03:30N 35°22' W 009°08'0 0.8
2017-Oct-10 03:00N 35°22' W 009°08'0 0.9
2017-Oct-10 02:30N 35°23' W 009°07'  
Track history (hours):
 
Tides and Currents Weather Stations Pressure Air Temp Water Temp Dewpoint Dewpoint Depression Visibility Wind Speed Wind Dir Waves Ship Positions

Clean Ocean

Last reported at 2017-Oct-20 02:30 UTC. Time now 2017-Oct-22 17:51 UTC.
Position N 34°07' W 025°01'.

Length 289 m; draft 9.4 m.

Type: Tanker. MMSI: 538005350.

Date/timePositionNaut miles runAvg speedWind from/ knotsBaromVisibWave heightAir tempDewpointWater temp
2017-Oct-20 02:30N 34°07' W 025°01'1516.7
2017-Oct-20 01:36N 34°10' W 024°43'816.7
2017-Oct-20 01:08N 34°12' W 024°34'316.7
2017-Oct-20 00:55N 34°12' W 024°30'1716.8
2017-Oct-19 23:55N 34°16' W 024°10'716.9
2017-Oct-19 23:30N 34°17' W 024°01'1617.5
2017-Oct-19 22:36N 34°20' W 023°42'1017.9
2017-Oct-19 22:02N 34°22' W 023°31'118.5
2017-Oct-19 22:00N 34°22' W 023°30'1218.5
2017-Oct-19 21:22N 34°24' W 023°16'2918.6
2017-Oct-19 19:51N 34°29' W 022°42'  
2017-Oct-17 15:40N 35°58' W 005°33'210.5
2017-Oct-17 15:27N 35°58' W 005°30'511.6
2017-Oct-17 15:00N 36°00' W 005°24'611.3
2017-Oct-17 14:30N 36°04' W 005°19'1 1.6
2017-Oct-17 14:00N 36°04' W 005°19'1 2.8
2017-Oct-17 13:30N 36°04' W 005°21'3 4.7
2017-Oct-17 12:50N 36°05' W 005°24'0 0.3
2017-Oct-17 12:29N 36°05' W 005°24'0 0.0
2017-Oct-17 11:59N 36°05' W 005°24'0 0.0
2017-Oct-17 11:26N 36°05' W 005°24'0 0.0
2017-Oct-17 10:59N 36°05' W 005°24'0 0.1
2017-Oct-17 10:26N 36°05' W 005°24'0 0.0
2017-Oct-17 09:59N 36°05' W 005°24'0 0.0
2017-Oct-17 09:29N 36°05' W 005°24'0 0.0
2017-Oct-17 08:59N 36°05' W 005°24'0 0.0
2017-Oct-17 08:29N 36°05' W 005°24'0 0.0
2017-Oct-17 07:59N 36°05' W 005°24'0 0.0
2017-Oct-17 07:29N 36°05' W 005°24'0 0.0
2017-Oct-17 06:59N 36°05' W 005°24'0 0.0
2017-Oct-17 06:30N 36°05' W 005°24'0 0.4
2017-Oct-17 06:00N 36°05' W 005°25'0 0.3
2017-Oct-17 05:28N 36°05' W 005°24'2 4.0
2017-Oct-17 05:00N 36°04' W 005°23'3 6.3
2017-Oct-17 04:30N 36°01' W 005°21'3 6.0
2017-Oct-17 04:00N 35°59' W 005°23'4 8.9
2017-Oct-17 03:30N 35°57' W 005°28'5 9.2
2017-Oct-17 02:59N 35°56' W 005°34'11 9.5
2017-Oct-17 01:51N 35°54' W 005°47'3 9.1
2017-Oct-17 01:29N 35°54' W 005°51'50 9.4
2017-Oct-16 20:11N 35°51' W 006°53'3 9.6
2017-Oct-16 19:55N 35°50' W 006°56'4 9.8
2017-Oct-16 19:30N 35°49' W 007°01'6 9.6
2017-Oct-16 18:52N 35°48' W 007°08'25 9.2
2017-Oct-16 16:13N 35°39' W 007°37'3 9.5
2017-Oct-16 15:55N 35°38' W 007°40'4 9.6
2017-Oct-16 15:30N 35°36' W 007°44'35 6.3
2017-Oct-16 10:00N 35°40' W 008°27'11 6.1
2017-Oct-16 08:12N 35°48' W 008°36'1 4.8
2017-Oct-16 08:00N 35°48' W 008°34'3 5.6
2017-Oct-16 07:30N 35°48' W 008°31'3 5.2
2017-Oct-16 07:00N 35°48' W 008°28'1 1.3
2017-Oct-16 06:18N 35°47' W 008°27'0 0.8
2017-Oct-16 06:00N 35°47' W 008°26'0 0.9
2017-Oct-16 05:30N 35°47' W 008°26'1 1.0
2017-Oct-16 04:57N 35°47' W 008°25'1 1.3
2017-Oct-16 04:30N 35°47' W 008°25'1 1.4
2017-Oct-16 04:00N 35°48' W 008°24'1 1.4
2017-Oct-16 03:29N 35°48' W 008°23'1 1.3
2017-Oct-16 03:00N 35°48' W 008°22'1 1.2
2017-Oct-16 02:30N 35°49' W 008°22'1 1.0
2017-Oct-16 02:00N 35°49' W 008°21'1 1.0
2017-Oct-16 01:30N 35°49' W 008°20'0 0.6
2017-Oct-16 01:00N 35°49' W 008°20'0 0.8
2017-Oct-16 00:28N 35°48' W 008°19'1 1.3
2017-Oct-15 23:58N 35°48' W 008°19'1 1.3
2017-Oct-15 23:30N 35°48' W 008°18'1 1.3
2017-Oct-15 22:52N 35°48' W 008°17'0 1.2
2017-Oct-15 22:28N 35°48' W 008°17'0 1.0
2017-Oct-15 22:00N 35°47' W 008°16'1 1.2
2017-Oct-15 21:30N 35°47' W 008°15'1 1.3
2017-Oct-15 21:00N 35°47' W 008°15'1 1.4
2017-Oct-15 20:30N 35°47' W 008°14'1 1.4
2017-Oct-15 20:00N 35°46' W 008°13'1 1.1
2017-Oct-15 19:30N 35°46' W 008°13'3 6.5
2017-Oct-15 19:00N 35°46' W 008°17'4 7.8
2017-Oct-15 18:30N 35°45' W 008°22'4 7.9
2017-Oct-15 18:00N 35°45' W 008°27'4 8.0
2017-Oct-15 17:30N 35°45' W 008°31'4 8.0
2017-Oct-15 17:00N 35°44' W 008°36'4 8.1
2017-Oct-15 16:30N 35°44' W 008°41'4 7.9
2017-Oct-15 16:00N 35°44' W 008°46'4 7.4
2017-Oct-15 15:30N 35°43' W 008°51'1 2.0
2017-Oct-15 15:00N 35°42' W 008°51'1 1.2
2017-Oct-15 14:00N 35°42' W 008°50'1 1.4
2017-Oct-15 13:30N 35°42' W 008°49'1 1.5
2017-Oct-15 13:00N 35°42' W 008°48'1 1.5
2017-Oct-15 12:30N 35°41' W 008°47'1 1.6
2017-Oct-15 12:00N 35°41' W 008°46'1 1.5
2017-Oct-15 11:30N 35°41' W 008°45'1 1.6
2017-Oct-15 11:00N 35°41' W 008°44'1 1.5
2017-Oct-15 10:30N 35°41' W 008°43'1 1.4
2017-Oct-15 10:00N 35°41' W 008°43'1 1.3
2017-Oct-15 09:30N 35°41' W 008°42'1 1.5
2017-Oct-15 09:00N 35°41' W 008°41'1 1.4
2017-Oct-15 08:30N 35°41' W 008°40'1 1.5
2017-Oct-15 08:00N 35°41' W 008°39'1 1.3
2017-Oct-15 07:30N 35°41' W 008°38'1 1.3
2017-Oct-15 07:00N 35°41' W 008°37'1 1.4
2017-Oct-15 06:30N 35°41' W 008°37'1 1.4
2017-Oct-15 06:00N 35°41' W 008°36'1 1.5
2017-Oct-15 05:30N 35°41' W 008°35'1 1.4
2017-Oct-15 05:00N 35°42' W 008°34'1 1.3
2017-Oct-15 04:30N 35°42' W 008°34'1 1.0
2017-Oct-15 04:00N 35°42' W 008°33'1 1.0
2017-Oct-15 03:30N 35°43' W 008°33'0 0.8
2017-Oct-15 03:00N 35°43' W 008°32'0 0.9
2017-Oct-15 02:30N 35°43' W 008°32'0 1.0
2017-Oct-15 02:00N 35°43' W 008°31'0 0.9
2017-Oct-15 01:30N 35°44' W 008°31'0 0.8
2017-Oct-15 01:00N 35°44' W 008°30'0 0.9
2017-Oct-15 00:30N 35°44' W 008°30'0 0.8
2017-Oct-15 00:00N 35°45' W 008°30'0 0.5
2017-Oct-14 23:29N 35°45' W 008°30'0 0.5
2017-Oct-14 23:00N 35°45' W 008°29'0 0.4
2017-Oct-14 22:24N 35°45' W 008°29'0 0.5
2017-Oct-14 21:57N 35°45' W 008°29'0 0.4
2017-Oct-14 21:27N 35°46' W 008°29'0 0.3
2017-Oct-14 20:54N 35°46' W 008°29'0 0.1
2017-Oct-14 20:30N 35°46' W 008°29'0 0.2
2017-Oct-14 19:58N 35°46' W 008°29'0 0.3
2017-Oct-14 19:28N 35°46' W 008°29'0 0.3
2017-Oct-14 18:59N 35°46' W 008°29'0 0.2
2017-Oct-14 18:28N 35°46' W 008°29'0 0.3
2017-Oct-14 17:59N 35°46' W 008°29'0 0.2
2017-Oct-14 17:30N 35°46' W 008°29'0 0.6
2017-Oct-14 17:00N 35°46' W 008°28'0 0.6
2017-Oct-14 16:30N 35°46' W 008°28'0 0.7
2017-Oct-14 15:58N 35°47' W 008°27'0 0.4
2017-Oct-14 15:30N 35°46' W 008°27'1 1.4
2017-Oct-14 14:59N 35°46' W 008°27'3 4.9
2017-Oct-14 14:28N 35°44' W 008°25'4 7.2
2017-Oct-14 13:54N 35°41' W 008°22'4 7.3
2017-Oct-14 13:22N 35°38' W 008°19'4 7.7
2017-Oct-14 12:51N 35°34' W 008°16'3 7.7
2017-Oct-14 12:27N 35°32' W 008°13'4 7.2
2017-Oct-14 11:51N 35°28' W 008°11'7 7.0
2017-Oct-14 10:54N 35°22' W 008°09'4 6.7
2017-Oct-14 10:15N 35°17' W 008°08'1 3.6
2017-Oct-14 09:54N 35°16' W 008°08'0 0.4
2017-Oct-14 09:30N 35°16' W 008°08'0 0.3
2017-Oct-14 08:41N 35°16' W 008°08'0 0.2
2017-Oct-14 08:27N 35°16' W 008°08'0 0.2
2017-Oct-14 07:51N 35°16' W 008°08'0 0.4
2017-Oct-14 07:27N 35°16' W 008°08'0 0.4
2017-Oct-14 06:50N 35°16' W 008°07'0 0.5
2017-Oct-14 06:30N 35°16' W 008°07'0 0.4
2017-Oct-14 05:58N 35°17' W 008°08'0 0.5
2017-Oct-14 05:30N 35°17' W 008°08'0 0.5
2017-Oct-14 04:56N 35°17' W 008°08'0 0.7
2017-Oct-14 04:29N 35°17' W 008°08'0 0.8
2017-Oct-14 03:58N 35°18' W 008°09'0 0.7
2017-Oct-14 03:29N 35°18' W 008°09'0 0.6
2017-Oct-14 03:00N 35°18' W 008°09'0 0.6
2017-Oct-14 02:29N 35°18' W 008°09'0 0.6
2017-Oct-14 01:58N 35°18' W 008°10'1 0.7
2017-Oct-14 01:03N 35°18' W 008°10'0 0.6
2017-Oct-14 00:58N 35°18' W 008°11'0 0.5
2017-Oct-14 00:22N 35°19' W 008°11'0 0.5
2017-Oct-14 00:00N 35°19' W 008°11'0 0.6
2017-Oct-13 23:30N 35°19' W 008°11'0 0.7
2017-Oct-13 23:00N 35°19' W 008°12'0 0.7
2017-Oct-13 22:30N 35°19' W 008°12'0 0.6
2017-Oct-13 21:56N 35°19' W 008°13'0 0.6
2017-Oct-13 21:30N 35°19' W 008°13'0 0.5
2017-Oct-13 21:00N 35°19' W 008°13'0 0.4
2017-Oct-13 20:30N 35°19' W 008°14'0 0.4
2017-Oct-13 19:59N 35°19' W 008°14'0 0.5
2017-Oct-13 19:30N 35°19' W 008°14'0 0.3
2017-Oct-13 19:00N 35°19' W 008°14'0 0.4
2017-Oct-13 18:29N 35°19' W 008°15'0 0.5
2017-Oct-13 18:00N 35°19' W 008°15'0 0.3
2017-Oct-13 17:30N 35°19' W 008°15'0 0.5
2017-Oct-13 17:00N 35°19' W 008°15'0 0.7
2017-Oct-13 16:30N 35°19' W 008°16'1 0.8
2017-Oct-13 15:39N 35°19' W 008°16'0 1.0
2017-Oct-13 15:29N 35°19' W 008°17'1 1.0
2017-Oct-13 14:49N 35°20' W 008°17'0 1.0
2017-Oct-13 14:30N 35°20' W 008°18'1 1.1
2017-Oct-13 14:00N 35°20' W 008°18'1 1.2
2017-Oct-13 13:30N 35°20' W 008°19'1 1.1
2017-Oct-13 13:00N 35°20' W 008°20'1 0.9
2017-Oct-13 12:11N 35°20' W 008°20'0 0.8
2017-Oct-13 11:58N 35°20' W 008°21'0 0.6
2017-Oct-13 11:30N 35°21' W 008°21'0 0.7
2017-Oct-13 11:00N 35°21' W 008°21'0 0.6
2017-Oct-13 10:30N 35°21' W 008°22'0 0.7
2017-Oct-13 10:00N 35°21' W 008°22'0 0.5
2017-Oct-13 09:30N 35°21' W 008°22'0 0.3
2017-Oct-13 09:00N 35°21' W 008°22'0 0.3
2017-Oct-13 08:30N 35°21' W 008°22'0 0.3
2017-Oct-13 08:00N 35°22' W 008°23'0 0.3
2017-Oct-13 07:30N 35°22' W 008°22'0 0.3
2017-Oct-13 07:00N 35°22' W 008°22'0 0.4
2017-Oct-13 06:30N 35°22' W 008°22'0 0.6
2017-Oct-13 06:00N 35°22' W 008°23'0 0.6
2017-Oct-13 05:30N 35°23' W 008°23'0 0.7
2017-Oct-13 04:55N 35°23' W 008°23'0 0.8
2017-Oct-13 04:29N 35°23' W 008°23'0 0.8
2017-Oct-13 03:54N 35°24' W 008°23'1 0.9
2017-Oct-13 03:14N 35°24' W 008°24'0 0.8
2017-Oct-13 02:50N 35°25' W 008°24'0 0.8
2017-Oct-13 02:28N 35°25' W 008°24'0 0.7
2017-Oct-13 01:54N 35°25' W 008°24'0 0.7
2017-Oct-13 01:16N 35°26' W 008°24'0 0.6
2017-Oct-13 00:39N 35°26' W 008°24'0 0.8
2017-Oct-13 00:30N 35°26' W 008°24'0 0.8
2017-Oct-12 23:54N 35°27' W 008°24'0 0.9
2017-Oct-12 23:27N 35°27' W 008°25'0 0.9
2017-Oct-12 22:53N 35°28' W 008°25'0 1.0
2017-Oct-12 22:29N 35°28' W 008°25'0 1.0
2017-Oct-12 22:00N 35°28' W 008°25'1 1.1
2017-Oct-12 21:30N 35°29' W 008°25'0 0.9
2017-Oct-12 21:00N 35°29' W 008°26'0 0.8
2017-Oct-12 20:26N 35°30' W 008°26'0 1.0
2017-Oct-12 20:00N 35°30' W 008°26'0 0.8
2017-Oct-12 19:28N 35°30' W 008°26'0 0.8
2017-Oct-12 18:53N 35°31' W 008°26'0 0.8
2017-Oct-12 18:21N 35°31' W 008°27'0 1.0
2017-Oct-12 18:00N 35°32' W 008°27'0 0.8
2017-Oct-12 17:30N 35°32' W 008°27'0 0.8
2017-Oct-12 16:58N 35°32' W 008°27'0 0.7
2017-Oct-12 16:30N 35°33' W 008°27'0 0.8
2017-Oct-12 16:00N 35°33' W 008°28'0 0.5
2017-Oct-12 15:30N 35°33' W 008°28'0 0.4
2017-Oct-12 15:00N 35°33' W 008°28'0 0.5
2017-Oct-12 14:30N 35°34' W 008°28'0 0.4
2017-Oct-12 14:00N 35°34' W 008°28'0 0.4
2017-Oct-12 13:30N 35°34' W 008°28'0 0.4
2017-Oct-12 13:00N 35°34' W 008°28'0 0.3
2017-Oct-12 12:30N 35°34' W 008°27'0 0.6
2017-Oct-12 12:00N 35°35' W 008°27'0 0.7
2017-Oct-12 11:30N 35°35' W 008°27'0 0.7
2017-Oct-12 11:00N 35°35' W 008°27'0 0.8
2017-Oct-12 10:27N 35°36' W 008°27'0 0.7
2017-Oct-12 09:59N 35°36' W 008°27'0 0.6
2017-Oct-12 09:29N 35°36' W 008°27'0 0.6
2017-Oct-12 09:00N 35°37' W 008°26'0 0.6
2017-Oct-12 08:30N 35°37' W 008°26'0 0.5
2017-Oct-12 08:00N 35°37' W 008°26'0 0.5
2017-Oct-12 07:30N 35°37' W 008°26'0 0.5
2017-Oct-12 07:00N 35°37' W 008°26'0 0.6
2017-Oct-12 06:30N 35°38' W 008°25'0 0.6
2017-Oct-12 06:00N 35°38' W 008°25'0 0.7
2017-Oct-12 05:29N 35°38' W 008°25'0 0.8
2017-Oct-12 05:00N 35°38' W 008°25'0 0.9
2017-Oct-12 04:30N 35°39' W 008°24'0 0.8
2017-Oct-12 03:59N 35°39' W 008°24'0 1.0
2017-Oct-12 03:30N 35°40' W 008°24'1 1.2
2017-Oct-12 03:00N 35°40' W 008°24'1 1.0
2017-Oct-12 02:23N 35°41' W 008°24'0 1.0
2017-Oct-12 01:59N 35°41' W 008°24'0 1.0
2017-Oct-12 01:29N 35°42' W 008°24'0 0.9
2017-Oct-12 01:00N 35°42' W 008°24'0 0.9
2017-Oct-12 00:30N 35°43' W 008°24'0 0.8
2017-Oct-12 00:00N 35°43' W 008°24'0 0.6
2017-Oct-11 23:26N 35°44' W 008°24'0 0.5
2017-Oct-11 22:51N 35°44' W 008°24'0 0.3
2017-Oct-11 22:30N 35°44' W 008°24'0 0.1
2017-Oct-11 21:52N 35°44' W 008°24'0 0.4
2017-Oct-11 21:28N 35°44' W 008°24'0 0.5
2017-Oct-11 21:00N 35°44' W 008°23'0 0.5
2017-Oct-11 20:30N 35°44' W 008°23'0 0.6
2017-Oct-11 19:57N 35°44' W 008°23'0 0.4
2017-Oct-11 19:26N 35°44' W 008°22'0 0.2
2017-Oct-11 18:57N 35°44' W 008°22'0 0.3
2017-Oct-11 18:30N 35°44' W 008°22'1 2.3
2017-Oct-11 17:59N 35°44' W 008°24'3 6.8
2017-Oct-11 17:30N 35°43' W 008°28'4 7.8
2017-Oct-11 16:56N 35°41' W 008°33'19 1.1
2017-Oct-11 00:00N 35°40' W 008°57'1 1.7
2017-Oct-10 23:30N 35°40' W 008°56'1 1.9
2017-Oct-10 23:00N 35°41' W 008°55'1 1.8
2017-Oct-10 22:30N 35°41' W 008°54'1 1.7
2017-Oct-10 22:00N 35°42' W 008°53'1 1.3
2017-Oct-10 21:30N 35°43' W 008°53'2 3.1
2017-Oct-10 21:00N 35°44' W 008°54'3 5.2
2017-Oct-10 20:30N 35°43' W 008°57'3 7.0
2017-Oct-10 20:00N 35°40' W 008°60'4 7.1
2017-Oct-10 19:30N 35°37' W 009°03'4 7.2
2017-Oct-10 19:00N 35°34' W 009°05'4 7.6
2017-Oct-10 18:30N 35°31' W 009°08'4 7.6
2017-Oct-10 18:00N 35°28' W 009°10'4 7.6
2017-Oct-10 17:30N 35°25' W 009°13'4 7.8
2017-Oct-10 17:00N 35°22' W 009°16'4 7.6
2017-Oct-10 16:30N 35°18' W 009°18'1 2.7
2017-Oct-10 16:00N 35°17' W 009°17'0 0.3
2017-Oct-10 15:30N 35°17' W 009°17'0 0.3
2017-Oct-10 15:00N 35°17' W 009°17'1 0.5
2017-Oct-10 14:00N 35°17' W 009°16'0 0.7
2017-Oct-10 13:30N 35°17' W 009°16'0 0.7
2017-Oct-10 13:00N 35°17' W 009°15'0 0.8
2017-Oct-10 12:30N 35°17' W 009°15'0 0.9
2017-Oct-10 12:00N 35°17' W 009°14'0 0.9
2017-Oct-10 11:30N 35°18' W 009°14'1 1.0
2017-Oct-10 11:00N 35°18' W 009°13'1 1.0
2017-Oct-10 10:30N 35°18' W 009°13'1 1.0
2017-Oct-10 10:00N 35°18' W 009°12'0 1.0
2017-Oct-10 09:30N 35°18' W 009°12'0 1.0
2017-Oct-10 09:00N 35°18' W 009°11'0 0.9
2017-Oct-10 08:30N 35°19' W 009°11'0 0.9
2017-Oct-10 08:00N 35°19' W 009°10'0 0.8
2017-Oct-10 07:30N 35°19' W 009°10'0 0.7
2017-Oct-10 07:00N 35°20' W 009°09'0 0.8
2017-Oct-10 06:30N 35°20' W 009°09'0 0.6
2017-Oct-10 06:00N 35°20' W 009°09'0 0.8
2017-Oct-10 05:30N 35°21' W 009°09'0 0.7
2017-Oct-10 05:00N 35°21' W 009°08'0 0.7
2017-Oct-10 04:30N 35°21' W 009°08'0 0.7
2017-Oct-10 04:00N 35°21' W 009°08'0 0.7
2017-Oct-10 03:30N 35°22' W 009°08'0 0.8
2017-Oct-10 03:00N 35°22' W 009°08'0 0.9
2017-Oct-10 02:30N 35°23' W 009°07'  

Dump ship's entire track history